sensor_id;sensor_type;location;lat;lon;timestamp;temperature;humidity
67748;HTU21D;54543;50.712;6.070;2023-12-07T00:01:02;3.76;108.55
67748;HTU21D;54543;50.712;6.070;2023-12-07T00:03:27;3.74;108.59
67748;HTU21D;54543;50.712;6.070;2023-12-07T00:05:53;3.72;108.65
67748;HTU21D;54543;50.712;6.070;2023-12-07T00:08:18;3.71;108.46
67748;HTU21D;54543;50.712;6.070;2023-12-07T00:10:44;3.67;108.33
67748;HTU21D;54543;50.712;6.070;2023-12-07T00:13:10;3.67;108.46
67748;HTU21D;54543;50.712;6.070;2023-12-07T00:15:36;3.64;108.46
67748;HTU21D;54543;50.712;6.070;2023-12-07T00:18:01;3.64;108.54
67748;HTU21D;54543;50.712;6.070;2023-12-07T00:20:29;3.62;108.55
67748;HTU21D;54543;50.712;6.070;2023-12-07T00:22:54;3.61;108.31
67748;HTU21D;54543;50.712;6.070;2023-12-07T00:25:21;3.57;108.21
67748;HTU21D;54543;50.712;6.070;2023-12-07T00:27:48;3.52;108.24
67748;HTU21D;54543;50.712;6.070;2023-12-07T00:30:14;3.50;108.30
67748;HTU21D;54543;50.712;6.070;2023-12-07T00:32:40;3.45;108.33
67748;HTU21D;54543;50.712;6.070;2023-12-07T00:35:09;3.42;108.41
67748;HTU21D;54543;50.712;6.070;2023-12-07T00:37:35;3.39;108.42
67748;HTU21D;54543;50.712;6.070;2023-12-07T00:40:01;3.39;108.64
67748;HTU21D;54543;50.712;6.070;2023-12-07T00:42:27;3.38;108.71
67748;HTU21D;54543;50.712;6.070;2023-12-07T00:44:54;3.36;108.62
67748;HTU21D;54543;50.712;6.070;2023-12-07T00:47:20;3.32;108.44
67748;HTU21D;54543;50.712;6.070;2023-12-07T00:49:46;3.26;108.28
67748;HTU21D;54543;50.712;6.070;2023-12-07T00:52:12;3.17;108.00
67748;HTU21D;54543;50.712;6.070;2023-12-07T00:54:38;3.06;107.91
67748;HTU21D;54543;50.712;6.070;2023-12-07T00:57:07;2.99;108.11
67748;HTU21D;54543;50.712;6.070;2023-12-07T00:59:33;2.95;108.34
67748;HTU21D;54543;50.712;6.070;2023-12-07T01:02:06;2.93;108.56
67748;HTU21D;54543;50.712;6.070;2023-12-07T01:04:32;2.91;108.73
67748;HTU21D;54543;50.712;6.070;2023-12-07T01:06:58;2.90;108.70
67748;HTU21D;54543;50.712;6.070;2023-12-07T01:09:25;2.86;108.66
67748;HTU21D;54543;50.712;6.070;2023-12-07T01:11:50;2.82;108.64
67748;HTU21D;54543;50.712;6.070;2023-12-07T01:14:16;2.79;108.81
67748;HTU21D;54543;50.712;6.070;2023-12-07T01:16:43;2.79;108.99
67748;HTU21D;54543;50.712;6.070;2023-12-07T01:19:09;2.78;108.81
67748;HTU21D;54543;50.712;6.070;2023-12-07T01:21:34;2.71;108.84
67748;HTU21D;54543;50.712;6.070;2023-12-07T01:24:00;2.72;109.01
67748;HTU21D;54543;50.712;6.070;2023-12-07T01:26:27;2.74;109.20
67748;HTU21D;54543;50.712;6.070;2023-12-07T01:28:52;2.78;109.37
67748;HTU21D;54543;50.712;6.070;2023-12-07T01:31:18;2.83;109.40
67748;HTU21D;54543;50.712;6.070;2023-12-07T01:33:44;2.86;109.30
67748;HTU21D;54543;50.712;6.070;2023-12-07T01:36:11;2.87;109.20
67748;HTU21D;54543;50.712;6.070;2023-12-07T01:38:36;2.86;109.01
67748;HTU21D;54543;50.712;6.070;2023-12-07T01:41:02;2.86;109.01
67748;HTU21D;54543;50.712;6.070;2023-12-07T01:43:28;2.86;108.99
67748;HTU21D;54543;50.712;6.070;2023-12-07T01:45:55;2.86;109.06
67748;HTU21D;54543;50.712;6.070;2023-12-07T01:48:23;2.86;109.09
67748;HTU21D;54543;50.712;6.070;2023-12-07T01:50:49;2.84;108.82
67748;HTU21D;54543;50.712;6.070;2023-12-07T01:53:16;2.80;108.59
67748;HTU21D;54543;50.712;6.070;2023-12-07T01:55:42;2.72;108.43
67748;HTU21D;54543;50.712;6.070;2023-12-07T01:58:08;2.65;108.25
67748;HTU21D;54543;50.712;6.070;2023-12-07T02:00:35;2.54;108.11
67748;HTU21D;54543;50.712;6.070;2023-12-07T02:03:02;2.43;108.01
67748;HTU21D;54543;50.712;6.070;2023-12-07T02:05:29;2.34;108.01
67748;HTU21D;54543;50.712;6.070;2023-12-07T02:07:56;2.23;108.08
67748;HTU21D;54543;50.712;6.070;2023-12-07T02:10:22;2.15;108.14
67748;HTU21D;54543;50.712;6.070;2023-12-07T02:12:47;2.08;108.23
67748;HTU21D;54543;50.712;6.070;2023-12-07T02:15:14;2.03;108.31
67748;HTU21D;54543;50.712;6.070;2023-12-07T02:20:31;1.92;108.49
67748;HTU21D;54543;50.712;6.070;2023-12-07T02:23:04;1.85;108.49
67748;HTU21D;54543;50.712;6.070;2023-12-07T02:25:36;1.80;108.49
67748;HTU21D;54543;50.712;6.070;2023-12-07T02:28:05;1.76;108.57
67748;HTU21D;54543;50.712;6.070;2023-12-07T02:30:30;1.69;108.62
67748;HTU21D;54543;50.712;6.070;2023-12-07T02:32:56;1.63;108.59
67748;HTU21D;54543;50.712;6.070;2023-12-07T02:35:22;1.57;108.65
67748;HTU21D;54543;50.712;6.070;2023-12-07T02:37:52;1.49;108.65
67748;HTU21D;54543;50.712;6.070;2023-12-07T02:40:24;1.43;108.74
67748;HTU21D;54543;50.712;6.070;2023-12-07T02:42:52;1.40;108.81
67748;HTU21D;54543;50.712;6.070;2023-12-07T02:45:18;1.37;108.93
67748;HTU21D;54543;50.712;6.070;2023-12-07T02:47:43;1.34;108.98
67748;HTU21D;54543;50.712;6.070;2023-12-07T02:50:11;1.31;108.97
67748;HTU21D;54543;50.712;6.070;2023-12-07T02:52:37;1.26;109.03
67748;HTU21D;54543;50.712;6.070;2023-12-07T02:55:03;1.23;109.01
67748;HTU21D;54543;50.712;6.070;2023-12-07T02:57:29;1.20;109.04
67748;HTU21D;54543;50.712;6.070;2023-12-07T02:59:55;1.17;109.10
67748;HTU21D;54543;50.712;6.070;2023-12-07T03:02:21;1.12;109.06
67748;HTU21D;54543;50.712;6.070;2023-12-07T03:04:46;1.09;109.12
67748;HTU21D;54543;50.712;6.070;2023-12-07T03:07:12;1.05;109.13
67748;HTU21D;54543;50.712;6.070;2023-12-07T03:09:38;1.02;109.17
67748;HTU21D;54543;50.712;6.070;2023-12-07T03:12:04;0.99;109.24
67748;HTU21D;54543;50.712;6.070;2023-12-07T03:14:29;0.97;109.34
67748;HTU21D;54543;50.712;6.070;2023-12-07T03:16:55;0.93;109.43
67748;HTU21D;54543;50.712;6.070;2023-12-07T03:19:20;0.91;109.46
67748;HTU21D;54543;50.712;6.070;2023-12-07T03:21:46;0.90;109.55
67748;HTU21D;54543;50.712;6.070;2023-12-07T03:24:11;0.88;109.49
67748;HTU21D;54543;50.712;6.070;2023-12-07T03:26:38;0.87;109.55
67748;HTU21D;54543;50.712;6.070;2023-12-07T03:29:03;0.83;109.48
67748;HTU21D;54543;50.712;6.070;2023-12-07T03:31:29;0.81;109.66
67748;HTU21D;54543;50.712;6.070;2023-12-07T03:33:55;0.79;109.58
67748;HTU21D;54543;50.712;6.070;2023-12-07T03:36:22;0.77;109.55
67748;HTU21D;54543;50.712;6.070;2023-12-07T03:38:48;0.73;109.52
67748;HTU21D;54543;50.712;6.070;2023-12-07T03:41:13;0.67;109.50
67748;HTU21D;54543;50.712;6.070;2023-12-07T03:43:39;0.62;109.47
67748;HTU21D;54543;50.712;6.070;2023-12-07T03:46:05;0.59;109.53
67748;HTU21D;54543;50.712;6.070;2023-12-07T03:48:32;0.55;109.53
67748;HTU21D;54543;50.712;6.070;2023-12-07T03:50:57;0.52;109.52
67748;HTU21D;54543;50.712;6.070;2023-12-07T03:53:23;0.49;109.56
67748;HTU21D;54543;50.712;6.070;2023-12-07T03:55:49;0.46;109.64
67748;HTU21D;54543;50.712;6.070;2023-12-07T03:58:14;0.42;109.66
67748;HTU21D;54543;50.712;6.070;2023-12-07T04:00:40;0.38;109.72
67748;HTU21D;54543;50.712;6.070;2023-12-07T04:03:06;0.37;109.75
67748;HTU21D;54543;50.712;6.070;2023-12-07T04:05:31;0.34;109.79
67748;HTU21D;54543;50.712;6.070;2023-12-07T04:07:57;0.34;109.90
67748;HTU21D;54543;50.712;6.070;2023-12-07T04:10:23;0.33;109.91
67748;HTU21D;54543;50.712;6.070;2023-12-07T04:12:49;0.32;109.92
67748;HTU21D;54543;50.712;6.070;2023-12-07T04:15:14;0.29;110.01
67748;HTU21D;54543;50.712;6.070;2023-12-07T04:17:40;0.28;110.12
67748;HTU21D;54543;50.712;6.070;2023-12-07T04:20:06;0.24;110.17
67748;HTU21D;54543;50.712;6.070;2023-12-07T04:22:33;0.22;110.35
67748;HTU21D;54543;50.712;6.070;2023-12-07T04:24:58;0.19;110.46
67748;HTU21D;54543;50.712;6.070;2023-12-07T04:27:24;0.19;110.48
67748;HTU21D;54543;50.712;6.070;2023-12-07T04:29:49;0.19;110.62
67748;HTU21D;54543;50.712;6.070;2023-12-07T04:32:15;0.19;110.78
67748;HTU21D;54543;50.712;6.070;2023-12-07T04:34:41;0.21;110.94
67748;HTU21D;54543;50.712;6.070;2023-12-07T04:37:06;0.21;111.10
67748;HTU21D;54543;50.712;6.070;2023-12-07T04:39:32;0.24;111.14
67748;HTU21D;54543;50.712;6.070;2023-12-07T04:41:57;0.28;111.32
67748;HTU21D;54543;50.712;6.070;2023-12-07T04:44:23;0.30;111.32
67748;HTU21D;54543;50.712;6.070;2023-12-07T04:46:51;0.32;111.35
67748;HTU21D;54543;50.712;6.070;2023-12-07T04:49:16;0.35;111.31
67748;HTU21D;54543;50.712;6.070;2023-12-07T04:51:42;0.36;111.28
67748;HTU21D;54543;50.712;6.070;2023-12-07T04:54:12;0.39;111.25
67748;HTU21D;54543;50.712;6.070;2023-12-07T04:56:40;0.40;111.16
67748;HTU21D;54543;50.712;6.070;2023-12-07T04:59:06;0.40;111.04
67748;HTU21D;54543;50.712;6.070;2023-12-07T05:01:32;0.42;111.02
67748;HTU21D;54543;50.712;6.070;2023-12-07T05:03:58;0.38;110.87
67748;HTU21D;54543;50.712;6.070;2023-12-07T05:06:23;0.36;110.88
67748;HTU21D;54543;50.712;6.070;2023-12-07T05:08:49;0.34;110.81
67748;HTU21D;54543;50.712;6.070;2023-12-07T05:11:15;0.30;110.76
67748;HTU21D;54543;50.712;6.070;2023-12-07T05:13:41;0.29;110.70
67748;HTU21D;54543;50.712;6.070;2023-12-07T05:16:06;0.24;110.67
67748;HTU21D;54543;50.712;6.070;2023-12-07T05:18:32;0.23;110.62
67748;HTU21D;54543;50.712;6.070;2023-12-07T05:20:57;0.21;110.62
67748;HTU21D;54543;50.712;6.070;2023-12-07T05:23:24;0.19;110.60
67748;HTU21D;54543;50.712;6.070;2023-12-07T05:25:49;0.16;110.60
67748;HTU21D;54543;50.712;6.070;2023-12-07T05:28:15;0.13;110.56
67748;HTU21D;54543;50.712;6.070;2023-12-07T05:30:40;0.10;110.75
67748;HTU21D;54543;50.712;6.070;2023-12-07T05:33:06;0.07;110.72
67748;HTU21D;54543;50.712;6.070;2023-12-07T05:35:33;0.04;110.66
67748;HTU21D;54543;50.712;6.070;2023-12-07T05:37:59;0.02;110.65
67748;HTU21D;54543;50.712;6.070;2023-12-07T05:40:24;-0.00;110.71
67748;HTU21D;54543;50.712;6.070;2023-12-07T05:42:50;-0.00;110.71
67748;HTU21D;54543;50.712;6.070;2023-12-07T05:45:16;-0.02;110.81
67748;HTU21D;54543;50.712;6.070;2023-12-07T05:47:42;-0.06;110.81
67748;HTU21D;54543;50.712;6.070;2023-12-07T05:50:08;-0.06;110.84
67748;HTU21D;54543;50.712;6.070;2023-12-07T05:52:33;-0.07;110.97
67748;HTU21D;54543;50.712;6.070;2023-12-07T05:54:59;-0.06;110.97
67748;HTU21D;54543;50.712;6.070;2023-12-07T05:57:24;-0.09;110.92
67748;HTU21D;54543;50.712;6.070;2023-12-07T05:59:50;-0.11;111.02
67748;HTU21D;54543;50.712;6.070;2023-12-07T06:02:16;-0.10;111.08
67748;HTU21D;54543;50.712;6.070;2023-12-07T06:04:41;-0.11;111.13
67748;HTU21D;54543;50.712;6.070;2023-12-07T06:07:07;-0.12;111.09
67748;HTU21D;54543;50.712;6.070;2023-12-07T06:09:33;-0.13;111.05
67748;HTU21D;54543;50.712;6.070;2023-12-07T06:11:59;-0.13;111.00
67748;HTU21D;54543;50.712;6.070;2023-12-07T06:14:25;-0.17;110.92
67748;HTU21D;54543;50.712;6.070;2023-12-07T06:16:50;-0.19;110.87
67748;HTU21D;54543;50.712;6.070;2023-12-07T06:19:16;-0.17;110.94
67748;HTU21D;54543;50.712;6.070;2023-12-07T06:21:43;-0.19;110.97
67748;HTU21D;54543;50.712;6.070;2023-12-07T06:24:09;-0.22;110.94
67748;HTU21D;54543;50.712;6.070;2023-12-07T06:26:35;-0.23;110.85
67748;HTU21D;54543;50.712;6.070;2023-12-07T06:29:01;-0.24;110.79
67748;HTU21D;54543;50.712;6.070;2023-12-07T06:31:27;-0.28;110.70
67748;HTU21D;54543;50.712;6.070;2023-12-07T06:33:53;-0.28;110.65
67748;HTU21D;54543;50.712;6.070;2023-12-07T06:36:20;-0.31;110.71
67748;HTU21D;54543;50.712;6.070;2023-12-07T06:38:47;-0.34;110.60
67748;HTU21D;54543;50.712;6.070;2023-12-07T06:41:14;-0.36;110.60
67748;HTU21D;54543;50.712;6.070;2023-12-07T06:43:40;-0.39;110.64
67748;HTU21D;54543;50.712;6.070;2023-12-07T06:46:05;-0.39;110.69
67748;HTU21D;54543;50.712;6.070;2023-12-07T06:48:31;-0.42;110.78
67748;HTU21D;54543;50.712;6.070;2023-12-07T06:50:57;-0.42;110.81
67748;HTU21D;54543;50.712;6.070;2023-12-07T06:53:22;-0.40;110.91
67748;HTU21D;54543;50.712;6.070;2023-12-07T06:55:48;-0.40;111.09
67748;HTU21D;54543;50.712;6.070;2023-12-07T06:58:13;-0.31;111.88
67748;HTU21D;54543;50.712;6.070;2023-12-07T07:00:39;-0.28;111.65
67748;HTU21D;54543;50.712;6.070;2023-12-07T07:03:05;-0.29;111.36
67748;HTU21D;54543;50.712;6.070;2023-12-07T07:05:31;-0.32;111.18
67748;HTU21D;54543;50.712;6.070;2023-12-07T07:07:57;-0.35;111.09
67748;HTU21D;54543;50.712;6.070;2023-12-07T07:10:23;-0.36;111.10
67748;HTU21D;54543;50.712;6.070;2023-12-07T07:12:49;-0.35;111.09
67748;HTU21D;54543;50.712;6.070;2023-12-07T07:15:15;-0.35;111.19
67748;HTU21D;54543;50.712;6.070;2023-12-07T07:17:40;-0.34;111.33
67748;HTU21D;54543;50.712;6.070;2023-12-07T07:20:07;-0.32;111.39
67748;HTU21D;54543;50.712;6.070;2023-12-07T07:22:33;-0.34;111.30
67748;HTU21D;54543;50.712;6.070;2023-12-07T07:25:00;-0.32;111.31
67748;HTU21D;54543;50.712;6.070;2023-12-07T07:27:25;-0.35;111.32
67748;HTU21D;54543;50.712;6.070;2023-12-07T07:29:51;-0.35;111.39
67748;HTU21D;54543;50.712;6.070;2023-12-07T07:32:17;-0.35;111.30
67748;HTU21D;54543;50.712;6.070;2023-12-07T07:34:43;-0.35;111.26
67748;HTU21D;54543;50.712;6.070;2023-12-07T07:37:08;-0.35;111.20
67748;HTU21D;54543;50.712;6.070;2023-12-07T07:39:34;-0.34;111.26
67748;HTU21D;54543;50.712;6.070;2023-12-07T07:42:00;-0.32;111.29
67748;HTU21D;54543;50.712;6.070;2023-12-07T07:44:25;-0.30;111.31
67748;HTU21D;54543;50.712;6.070;2023-12-07T07:46:51;-0.28;111.40
67748;HTU21D;54543;50.712;6.070;2023-12-07T07:49:17;-0.24;111.45
67748;HTU21D;54543;50.712;6.070;2023-12-07T07:51:42;-0.22;111.36
67748;HTU21D;54543;50.712;6.070;2023-12-07T07:54:08;-0.21;111.29
67748;HTU21D;54543;50.712;6.070;2023-12-07T07:56:33;-0.19;111.20
67748;HTU21D;54543;50.712;6.070;2023-12-07T07:58:59;-0.16;111.22
67748;HTU21D;54543;50.712;6.070;2023-12-07T08:01:26;-0.14;111.22
67748;HTU21D;54543;50.712;6.070;2023-12-07T08:03:51;-0.11;111.19
67748;HTU21D;54543;50.712;6.070;2023-12-07T08:06:17;-0.08;111.20
67748;HTU21D;54543;50.712;6.070;2023-12-07T08:08:43;-0.02;111.30
67748;HTU21D;54543;50.712;6.070;2023-12-07T08:11:08;0.04;111.42
67748;HTU21D;54543;50.712;6.070;2023-12-07T08:13:34;0.09;111.36
67748;HTU21D;54543;50.712;6.070;2023-12-07T08:16:01;0.12;111.15
67748;HTU21D;54543;50.712;6.070;2023-12-07T08:18:26;0.13;110.95
67748;HTU21D;54543;50.712;6.070;2023-12-07T08:20:52;0.14;110.91
67748;HTU21D;54543;50.712;6.070;2023-12-07T08:23:18;0.16;110.94
67748;HTU21D;54543;50.712;6.070;2023-12-07T08:25:44;0.18;110.94
67748;HTU21D;54543;50.712;6.070;2023-12-07T08:28:09;0.22;110.93
67748;HTU21D;54543;50.712;6.070;2023-12-07T08:30:36;0.25;110.91
67748;HTU21D;54543;50.712;6.070;2023-12-07T08:33:02;0.28;110.78
67748;HTU21D;54543;50.712;6.070;2023-12-07T08:35:27;0.34;110.87
67748;HTU21D;54543;50.712;6.070;2023-12-07T08:37:53;0.39;110.94
67748;HTU21D;54543;50.712;6.070;2023-12-07T08:40:19;0.43;110.84
67748;HTU21D;54543;50.712;6.070;2023-12-07T08:42:46;0.50;110.87
67748;HTU21D;54543;50.712;6.070;2023-12-07T08:45:12;0.60;111.07
67748;HTU21D;54543;50.712;6.070;2023-12-07T08:47:39;0.72;111.20
67748;HTU21D;54543;50.712;6.070;2023-12-07T08:50:05;0.84;111.13
67748;HTU21D;54543;50.712;6.070;2023-12-07T08:52:33;0.92;110.78
67748;HTU21D;54543;50.712;6.070;2023-12-07T08:54:59;0.92;110.23
67748;HTU21D;54543;50.712;6.070;2023-12-07T08:57:25;0.89;109.85
67748;HTU21D;54543;50.712;6.070;2023-12-07T08:59:50;0.89;109.62
67748;HTU21D;54543;50.712;6.070;2023-12-07T09:02:16;0.92;109.72
67748;HTU21D;54543;50.712;6.070;2023-12-07T09:04:42;1.01;109.81
67748;HTU21D;54543;50.712;6.070;2023-12-07T09:07:07;1.10;109.83
67748;HTU21D;54543;50.712;6.070;2023-12-07T09:09:34;1.18;109.75
67748;HTU21D;54543;50.712;6.070;2023-12-07T09:12:00;1.26;109.52
67748;HTU21D;54543;50.712;6.070;2023-12-07T09:14:26;1.36;109.52
67748;HTU21D;54543;50.712;6.070;2023-12-07T09:16:51;1.46;109.50
67748;HTU21D;54543;50.712;6.070;2023-12-07T09:19:17;1.56;109.44
67748;HTU21D;54543;50.712;6.070;2023-12-07T09:21:43;1.69;109.30
67748;HTU21D;54543;50.712;6.070;2023-12-07T09:24:09;1.79;109.04
67748;HTU21D;54543;50.712;6.070;2023-12-07T09:26:34;1.90;108.66
67748;HTU21D;54543;50.712;6.070;2023-12-07T09:29:00;2.01;108.43
67748;HTU21D;54543;50.712;6.070;2023-12-07T09:31:26;2.11;107.84
67748;HTU21D;54543;50.712;6.070;2023-12-07T09:33:52;2.21;107.46
67748;HTU21D;54543;50.712;6.070;2023-12-07T09:36:19;2.30;106.81
67748;HTU21D;54543;50.712;6.070;2023-12-07T09:38:46;2.41;106.22
67748;HTU21D;54543;50.712;6.070;2023-12-07T09:41:12;2.51;105.49
67748;HTU21D;54543;50.712;6.070;2023-12-07T09:43:38;2.60;105.21
67748;HTU21D;54543;50.712;6.070;2023-12-07T09:46:04;2.69;104.26
67748;HTU21D;54543;50.712;6.070;2023-12-07T09:48:31;2.74;103.76
67748;HTU21D;54543;50.712;6.070;2023-12-07T09:50:57;2.78;103.13
67748;HTU21D;54543;50.712;6.070;2023-12-07T09:53:24;2.84;102.93
67748;HTU21D;54543;50.712;6.070;2023-12-07T09:55:50;2.93;102.74
67748;HTU21D;54543;50.712;6.070;2023-12-07T09:58:16;2.99;102.03
67748;HTU21D;54543;50.712;6.070;2023-12-07T10:00:42;3.06;101.75
67748;HTU21D;54543;50.712;6.070;2023-12-07T10:03:22;3.17;101.14
67748;HTU21D;54543;50.712;6.070;2023-12-07T10:05:58;3.25;100.81
67748;HTU21D;54543;50.712;6.070;2023-12-07T10:08:32;3.31;100.38
67748;HTU21D;54543;50.712;6.070;2023-12-07T10:11:08;3.33;99.67
67748;HTU21D;54543;50.712;6.070;2023-12-07T10:13:35;3.39;99.43
67748;HTU21D;54543;50.712;6.070;2023-12-07T10:16:10;3.42;98.90
67748;HTU21D;54543;50.712;6.070;2023-12-07T10:18:36;3.52;98.88
67748;HTU21D;54543;50.712;6.070;2023-12-07T10:21:02;3.57;98.39
67748;HTU21D;54543;50.712;6.070;2023-12-07T10:23:28;3.62;97.99
67748;HTU21D;54543;50.712;6.070;2023-12-07T10:25:54;3.68;98.26
67748;HTU21D;54543;50.712;6.070;2023-12-07T10:28:20;3.73;97.95
67748;HTU21D;54543;50.712;6.070;2023-12-07T10:30:46;3.80;97.97
67748;HTU21D;54543;50.712;6.070;2023-12-07T10:33:12;3.91;97.39
67748;HTU21D;54543;50.712;6.070;2023-12-07T10:35:47;4.03;97.05
67748;HTU21D;54543;50.712;6.070;2023-12-07T10:38:16;4.15;96.92
67748;HTU21D;54543;50.712;6.070;2023-12-07T10:40:42;4.20;96.03
67748;HTU21D;54543;50.712;6.070;2023-12-07T10:43:08;4.26;95.91
67748;HTU21D;54543;50.712;6.070;2023-12-07T10:45:35;4.33;95.57
67748;HTU21D;54543;50.712;6.070;2023-12-07T10:48:06;4.36;95.04
67748;HTU21D;54543;50.712;6.070;2023-12-07T10:50:34;4.36;94.65
67748;HTU21D;54543;50.712;6.070;2023-12-07T10:53:08;4.34;93.53
67748;HTU21D;54543;50.712;6.070;2023-12-07T10:55:42;4.42;92.50
67748;HTU21D;54543;50.712;6.070;2023-12-07T10:58:11;4.50;92.48
67748;HTU21D;54543;50.712;6.070;2023-12-07T11:00:42;4.57;92.93
67748;HTU21D;54543;50.712;6.070;2023-12-07T11:03:14;4.59;89.44
67748;HTU21D;54543;50.712;6.070;2023-12-07T11:05:42;4.60;91.47
67748;HTU21D;54543;50.712;6.070;2023-12-07T11:08:09;4.67;92.15
67748;HTU21D;54543;50.712;6.070;2023-12-07T11:10:47;4.76;91.04
67748;HTU21D;54543;50.712;6.070;2023-12-07T11:13:22;4.80;89.54
67748;HTU21D;54543;50.712;6.070;2023-12-07T11:15:49;4.87;89.95
67748;HTU21D;54543;50.712;6.070;2023-12-07T11:18:14;4.92;90.34
67748;HTU21D;54543;50.712;6.070;2023-12-07T11:20:42;4.95;89.81
67748;HTU21D;54543;50.712;6.070;2023-12-07T11:23:08;4.93;87.94
67748;HTU21D;54543;50.712;6.070;2023-12-07T11:25:35;4.83;89.04
67748;HTU21D;54543;50.712;6.070;2023-12-07T11:28:02;4.80;89.32
67748;HTU21D;54543;50.712;6.070;2023-12-07T11:30:35;4.81;89.28
67748;HTU21D;54543;50.712;6.070;2023-12-07T11:33:03;4.83;89.24
67748;HTU21D;54543;50.712;6.070;2023-12-07T11:35:29;4.87;89.57
67748;HTU21D;54543;50.712;6.070;2023-12-07T11:38:02;4.94;89.48
67748;HTU21D;54543;50.712;6.070;2023-12-07T11:40:43;5.03;87.38
67748;HTU21D;54543;50.712;6.070;2023-12-07T11:45:59;5.22;87.88
67748;HTU21D;54543;50.712;6.070;2023-12-07T11:48:25;5.36;87.68
67748;HTU21D;54543;50.712;6.070;2023-12-07T11:51:00;5.43;87.03
67748;HTU21D;54543;50.712;6.070;2023-12-07T11:53:35;5.49;86.79
67748;HTU21D;54543;50.712;6.070;2023-12-07T11:56:06;5.51;85.22
67748;HTU21D;54543;50.712;6.070;2023-12-07T11:58:33;5.52;85.99
67748;HTU21D;54543;50.712;6.070;2023-12-07T12:00:59;5.49;86.19
67748;HTU21D;54543;50.712;6.070;2023-12-07T12:03:27;5.45;82.49
67748;HTU21D;54543;50.712;6.070;2023-12-07T12:05:52;5.42;85.81
67748;HTU21D;54543;50.712;6.070;2023-12-07T12:08:18;5.35;85.36
67748;HTU21D;54543;50.712;6.070;2023-12-07T12:10:45;5.24;85.42
67748;HTU21D;54543;50.712;6.070;2023-12-07T12:13:11;5.17;86.75
67748;HTU21D;54543;50.712;6.070;2023-12-07T12:15:38;5.08;86.75
67748;HTU21D;54543;50.712;6.070;2023-12-07T12:18:05;5.02;87.19
67748;HTU21D;54543;50.712;6.070;2023-12-07T12:20:31;4.96;86.94
67748;HTU21D;54543;50.712;6.070;2023-12-07T12:22:58;4.94;87.68
67748;HTU21D;54543;50.712;6.070;2023-12-07T12:25:28;4.92;87.61
67748;HTU21D;54543;50.712;6.070;2023-12-07T12:27:56;4.89;86.82
67748;HTU21D;54543;50.712;6.070;2023-12-07T12:30:22;4.88;86.61
67748;HTU21D;54543;50.712;6.070;2023-12-07T12:32:49;4.90;85.67
67748;HTU21D;54543;50.712;6.070;2023-12-07T12:35:16;4.95;87.38
67748;HTU21D;54543;50.712;6.070;2023-12-07T12:37:46;4.97;86.99
67748;HTU21D;54543;50.712;6.070;2023-12-07T12:40:15;5.03;87.74
67748;HTU21D;54543;50.712;6.070;2023-12-07T12:42:43;5.08;87.07
67748;HTU21D;54543;50.712;6.070;2023-12-07T12:45:09;5.10;84.13
67748;HTU21D;54543;50.712;6.070;2023-12-07T12:47:39;5.24;84.91
67748;HTU21D;54543;50.712;6.070;2023-12-07T12:50:10;5.36;86.20
67748;HTU21D;54543;50.712;6.070;2023-12-07T12:52:36;5.39;85.37
67748;HTU21D;54543;50.712;6.070;2023-12-07T12:55:06;5.39;84.97
67748;HTU21D;54543;50.712;6.070;2023-12-07T12:57:32;5.36;84.39
67748;HTU21D;54543;50.712;6.070;2023-12-07T13:00:00;5.41;85.91
67748;HTU21D;54543;50.712;6.070;2023-12-07T13:02:26;5.46;84.97
67748;HTU21D;54543;50.712;6.070;2023-12-07T13:04:51;5.42;83.58
67748;HTU21D;54543;50.712;6.070;2023-12-07T13:07:19;5.35;84.10
67748;HTU21D;54543;50.712;6.070;2023-12-07T13:09:45;5.28;84.35
67748;HTU21D;54543;50.712;6.070;2023-12-07T13:12:10;5.19;83.49
67748;HTU21D;54543;50.712;6.070;2023-12-07T13:14:36;5.10;83.23
67748;HTU21D;54543;50.712;6.070;2023-12-07T13:17:04;5.02;84.99
67748;HTU21D;54543;50.712;6.070;2023-12-07T13:19:29;4.92;84.38
67748;HTU21D;54543;50.712;6.070;2023-12-07T13:21:55;4.82;83.71
67748;HTU21D;54543;50.712;6.070;2023-12-07T13:24:20;4.75;84.23
67748;HTU21D;54543;50.712;6.070;2023-12-07T13:26:46;4.69;85.00
67748;HTU21D;54543;50.712;6.070;2023-12-07T13:29:13;4.62;84.62
67748;HTU21D;54543;50.712;6.070;2023-12-07T13:31:38;4.58;85.66
67748;HTU21D;54543;50.712;6.070;2023-12-07T13:34:04;4.54;84.10
67748;HTU21D;54543;50.712;6.070;2023-12-07T13:36:30;4.50;86.23
67748;HTU21D;54543;50.712;6.070;2023-12-07T13:38:57;4.47;85.71
67748;HTU21D;54543;50.712;6.070;2023-12-07T13:41:22;4.45;86.09
67748;HTU21D;54543;50.712;6.070;2023-12-07T13:43:49;4.44;85.61
67748;HTU21D;54543;50.712;6.070;2023-12-07T13:46:18;4.41;85.42
67748;HTU21D;54543;50.712;6.070;2023-12-07T13:48:43;4.36;84.61
67748;HTU21D;54543;50.712;6.070;2023-12-07T13:51:09;4.34;86.21
67748;HTU21D;54543;50.712;6.070;2023-12-07T13:53:35;4.30;85.82
67748;HTU21D;54543;50.712;6.070;2023-12-07T13:56:02;4.22;84.39
67748;HTU21D;54543;50.712;6.070;2023-12-07T13:58:30;4.19;84.84
67748;HTU21D;54543;50.712;6.070;2023-12-07T14:00:58;4.15;85.26
67748;HTU21D;54543;50.712;6.070;2023-12-07T14:03:26;4.13;86.09
67748;HTU21D;54543;50.712;6.070;2023-12-07T14:05:52;4.13;86.49
67748;HTU21D;54543;50.712;6.070;2023-12-07T14:08:18;4.08;85.68
67748;HTU21D;54543;50.712;6.070;2023-12-07T14:10:44;4.08;86.42
67748;HTU21D;54543;50.712;6.070;2023-12-07T14:13:10;4.09;85.10
67748;HTU21D;54543;50.712;6.070;2023-12-07T14:15:36;4.10;85.12
67748;HTU21D;54543;50.712;6.070;2023-12-07T14:18:02;4.10;86.57
67748;HTU21D;54543;50.712;6.070;2023-12-07T14:20:28;4.08;84.33
67748;HTU21D;54543;50.712;6.070;2023-12-07T14:22:57;4.08;84.57
67748;HTU21D;54543;50.712;6.070;2023-12-07T14:25:29;4.07;85.59
67748;HTU21D;54543;50.712;6.070;2023-12-07T14:27:55;4.06;85.54
67748;HTU21D;54543;50.712;6.070;2023-12-07T14:30:21;4.02;80.27
67748;HTU21D;54543;50.712;6.070;2023-12-07T14:32:47;4.02;83.41
67748;HTU21D;54543;50.712;6.070;2023-12-07T14:35:18;4.01;83.28
67748;HTU21D;54543;50.712;6.070;2023-12-07T14:37:43;3.98;79.59
67748;HTU21D;54543;50.712;6.070;2023-12-07T14:40:10;3.97;83.77
67748;HTU21D;54543;50.712;6.070;2023-12-07T14:42:36;3.93;81.54
67748;HTU21D;54543;50.712;6.070;2023-12-07T14:45:02;3.94;82.58
67748;HTU21D;54543;50.712;6.070;2023-12-07T14:47:28;3.93;82.06
67748;HTU21D;54543;50.712;6.070;2023-12-07T14:49:53;3.88;82.62
67748;HTU21D;54543;50.712;6.070;2023-12-07T14:52:19;3.84;82.94
67748;HTU21D;54543;50.712;6.070;2023-12-07T14:54:44;3.82;83.60
67748;HTU21D;54543;50.712;6.070;2023-12-07T14:57:10;3.82;83.19
67748;HTU21D;54543;50.712;6.070;2023-12-07T14:59:36;3.80;83.94
67748;HTU21D;54543;50.712;6.070;2023-12-07T15:02:01;3.79;84.55
67748;HTU21D;54543;50.712;6.070;2023-12-07T15:04:27;3.76;82.96
67748;HTU21D;54543;50.712;6.070;2023-12-07T15:06:53;3.72;80.88
67748;HTU21D;54543;50.712;6.070;2023-12-07T15:09:20;3.75;84.17
67748;HTU21D;54543;50.712;6.070;2023-12-07T15:11:46;3.74;83.18
67748;HTU21D;54543;50.712;6.070;2023-12-07T15:14:12;3.72;82.93
67748;HTU21D;54543;50.712;6.070;2023-12-07T15:16:38;3.68;83.69
67748;HTU21D;54543;50.712;6.070;2023-12-07T15:19:04;3.62;83.12